Terminal Aerodrome Forecast
Issued by NWS Cleveland, OH

Home | Current Version | Previous Version | Text Only | Print | Product List | Glossary On
Versions: 1 2 3 4 5 6 7 8 9 10 11 12 13 14 15 16 17 18 19 20 21 22 23 24
000
FTUS41 KCLE 030500
TAFTOL
TAF
KTOL 030520Z 0306/0406 VRB03KT 6SM BR SKC
      TEMPO 0306/0309 2SM BR
     FM030900 VRB03KT 4SM BR SCT003
      TEMPO 0309/0313 3/4SM BR BKN003
     FM031300 20005KT P6SM SKC
      TEMPO 0313/0315 5SM BR
     FM032200 18003KT P6SM SKC=

USA.gov is the U.S. government's official web portal to all federal, state and local government web resources and services.